Time;durP1;ratioP1;P1;durP2;ratioP2;P2;SDS_P1;SDS_P2;PMS_P1;PMS_P2;Temp;Humidity;BMP_temperature;BMP_pressure;BME280_temperature;BME280_humidity;BME280_pressure;Samples;Min_cycle;Max_cycle;Signal;HPM_P1;HPM_P2
2022/01/28 00:00:34;;;;;;;11.35;3.65;;;7.40;94.60;;;;;;5046638;28;20053;-64
2022/01/28 00:03:04;;;;;;;9.25;2.63;;;7.50;94.60;;;;;;5070136;28;20035;-64
2022/01/28 00:05:31;;;;;;;10.25;2.45;;;7.50;94.40;;;;;;5068763;28;20123;-64
2022/01/28 00:07:56;;;;;;;10.63;2.28;;;7.40;94.30;;;;;;5051650;28;20028;-64
2022/01/28 00:10:24;;;;;;;9.40;2.83;;;7.50;94.30;;;;;;5066478;28;20190;-64
2022/01/28 00:15:39;;;;;;;11.10;2.47;;;7.50;94.10;;;;;;5050962;28;20036;-65
2022/01/28 00:37:11;;;;;;;11.95;2.65;;;7.50;94.10;;;;;;5056908;28;20070;-65
2022/01/28 00:39:37;;;;;;;12.18;2.97;;;7.50;94.10;;;;;;5068570;28;20507;-65
2022/01/28 00:42:03;;;;;;;10.00;2.70;;;7.50;94.00;;;;;;5061629;28;20123;-64
2022/01/28 00:44:28;;;;;;;10.80;2.97;;;7.50;94.00;;;;;;5033028;28;20029;-64
2022/01/28 00:46:54;;;;;;;9.38;3.47;;;7.50;94.00;;;;;;5056790;28;20024;-64
2022/01/28 00:49:20;;;;;;;10.80;2.83;;;7.60;94.00;;;;;;5070775;28;20090;-65
2022/01/28 00:51:45;;;;;;;9.85;3.03;;;7.60;94.10;;;;;;5064879;28;20446;-64
2022/01/28 00:54:11;;;;;;;13.93;4.10;;;7.50;94.00;;;;;;5050750;28;20116;-64
2022/01/28 00:56:36;;;;;;;12.57;3.58;;;7.60;94.00;;;;;;5055419;28;20393;-64
2022/01/28 00:59:02;;;;;;;10.85;3.35;;;7.50;93.80;;;;;;5070783;28;20456;-64
2022/01/28 01:01:29;;;;;;;9.85;3.50;;;7.60;94.00;;;;;;5060930;28;20518;-64
2022/01/28 01:03:55;;;;;;;11.43;2.55;;;7.50;93.90;;;;;;5067809;28;20108;-64
2022/01/28 01:06:21;;;;;;;12.23;3.05;;;7.60;94.00;;;;;;5065570;28;20078;-64
2022/01/28 01:08:47;;;;;;;19.42;4.00;;;7.60;94.00;;;;;;5070716;28;20028;-64
2022/01/28 01:11:12;;;;;;;9.73;2.20;;;7.60;93.90;;;;;;5053576;28;20029;-63
2022/01/28 01:13:40;;;;;;;13.38;3.30;;;7.60;94.00;;;;;;5070854;28;20027;-64
2022/01/28 01:16:07;;;;;;;14.20;2.95;;;7.60;93.90;;;;;;5065531;28;20037;-64
2022/01/28 01:21:13;;;;;;;8.32;3.10;;;7.60;93.90;;;;;;5053135;28;20649;-64
2022/01/28 01:23:47;;;;;;;9.43;3.03;;;7.60;93.90;;;;;;5050963;28;20033;-64
2022/01/28 01:26:14;;;;;;;7.78;3.08;;;7.60;93.90;;;;;;5051631;28;20386;-64
2022/01/28 01:28:41;;;;;;;11.18;3.50;;;7.50;93.90;;;;;;5065302;28;20044;-64
2022/01/28 01:31:15;;;;;;;13.35;4.20;;;7.50;93.80;;;;;;5072297;28;20086;-63
2022/01/28 01:34:10;;;;;;;11.75;2.50;;;7.50;94.00;;;;;;5054441;28;20119;-64
2022/01/28 01:36:26;;;;;;;14.18;3.42;;;7.50;94.00;;;;;;5066649;28;20128;-64
2022/01/28 01:38:52;;;;;;;14.30;3.13;;;7.50;93.90;;;;;;5054454;28;20124;-64
2022/01/28 01:41:29;;;;;;;18.85;4.15;;;7.40;93.90;;;;;;5054920;28;20108;-63
2022/01/28 01:44:05;;;;;;;11.20;3.22;;;7.50;94.00;;;;;;5054143;28;20025;-65
2022/01/28 01:52:04;;;;;;;12.52;3.38;;;7.40;93.70;;;;;;5065732;28;20064;-65
2022/01/28 01:54:37;;;;;;;9.85;2.55;;;7.40;93.80;;;;;;5067472;28;20098;-65
2022/01/28 01:57:04;;;;;;;12.45;2.65;;;7.40;93.80;;;;;;5063471;28;20060;-65
2022/01/28 01:59:30;;;;;;;15.15;2.75;;;7.40;93.80;;;;;;5066172;28;20123;-65
2022/01/28 02:01:56;;;;;;;13.07;3.00;;;7.40;93.80;;;;;;5071762;28;20024;-65
2022/01/28 02:04:22;;;;;;;19.05;3.50;;;7.40;93.90;;;;;;5073750;28;20021;-64
2022/01/28 02:06:47;;;;;;;10.95;2.50;;;7.40;93.90;;;;;;5065887;28;20027;-65
2022/01/28 02:09:13;;;;;;;18.25;3.00;;;7.40;94.20;;;;;;5053347;28;20083;-64
2022/01/28 02:11:40;;;;;;;13.50;2.83;;;7.40;94.00;;;;;;5056249;28;20033;-64
2022/01/28 02:14:06;;;;;;;15.55;3.00;;;7.40;94.00;;;;;;5053440;28;20075;-64
2022/01/28 02:16:32;;;;;;;10.00;2.42;;;7.40;94.00;;;;;;5058667;28;20024;-63
2022/01/28 02:18:57;;;;;;;12.60;3.80;;;7.40;94.10;;;;;;5035522;28;20169;-63
2022/01/28 02:21:23;;;;;;;7.40;2.45;;;7.30;93.90;;;;;;5036841;28;20075;-64
2022/01/28 02:23:54;;;;;;;14.02;3.50;;;7.30;94.00;;;;;;5073427;28;20028;-64
2022/01/28 02:26:19;;;;;;;11.65;3.97;;;7.30;93.80;;;;;;5072172;28;20044;-63
2022/01/28 02:28:53;;;;;;;12.57;2.50;;;7.30;93.90;;;;;;5067764;28;20392;-64
2022/01/28 02:31:23;;;;;;;10.75;3.45;;;7.30;93.90;;;;;;5054987;28;20068;-63
2022/01/28 02:33:50;;;;;;;11.10;3.05;;;7.30;93.80;;;;;;5067765;28;20037;-64
2022/01/28 02:36:16;;;;;;;10.43;3.20;;;7.30;93.80;;;;;;5053571;28;20112;-63
2022/01/28 02:38:41;;;;;;;13.15;3.22;;;7.30;93.80;;;;;;5072002;28;20107;-64
2022/01/28 02:41:07;;;;;;;13.25;3.80;;;7.30;93.80;;;;;;5071646;28;20025;-65
2022/01/28 02:46:30;;;;;;;12.52;2.67;;;7.30;93.80;;;;;;5035069;28;20499;-64
2022/01/28 02:49:04;;;;;;;13.80;2.88;;;7.30;93.90;;;;;;5053217;28;20127;-64
2022/01/28 02:51:30;;;;;;;12.68;3.22;;;7.30;93.80;;;;;;5053067;28;20095;-64
2022/01/28 02:53:59;;;;;;;17.08;4.13;;;7.30;93.90;;;;;;5052931;28;20472;-64
2022/01/28 02:58:55;;;;;;;11.25;3.50;;;7.30;94.00;;;;;;5053842;28;20021;-63
2022/01/28 03:01:20;;;;;;;16.52;4.15;;;7.30;94.10;;;;;;5066227;28;20044;-63
2022/01/28 03:03:48;;;;;;;14.13;3.25;;;7.30;94.30;;;;;;5072633;28;20017;-64
2022/01/28 03:06:15;;;;;;;17.30;3.65;;;7.20;94.60;;;;;;5062108;28;20033;-64
2022/01/28 03:08:46;;;;;;;12.10;3.55;;;7.20;94.80;;;;;;5072501;28;20025;-63
2022/01/28 03:16:38;;;;;;;20.88;3.83;;;7.10;94.80;;;;;;5053597;28;20056;-64
2022/01/28 03:19:19;;;;;;;21.45;4.13;;;7.10;94.70;;;;;;5065816;28;20025;-64
2022/01/28 03:21:53;;;;;;;15.25;3.13;;;7.10;94.60;;;;;;5071085;28;20055;-65
2022/01/28 03:24:19;;;;;;;11.05;3.30;;;7.10;94.60;;;;;;5060170;28;20029;-64
2022/01/28 03:26:48;;;;;;;15.25;3.45;;;7.10;94.60;;;;;;5058108;28;20086;-64
2022/01/28 03:29:14;;;;;;;16.13;3.13;;;7.10;94.60;;;;;;5061123;28;20036;-64
2022/01/28 03:31:39;;;;;;;13.15;3.00;;;7.10;94.70;;;;;;5056044;28;20017;-63
2022/01/28 03:34:05;;;;;;;10.07;2.80;;;7.10;94.70;;;;;;5052113;28;20483;-64
2022/01/28 03:36:30;;;;;;;16.27;3.72;;;7.10;94.60;;;;;;5035646;28;20031;-63
2022/01/28 03:38:56;;;;;;;12.10;4.28;;;7.10;94.60;;;;;;5057935;28;20034;-64
2022/01/28 03:41:23;;;;;;;18.40;3.20;;;7.10;94.70;;;;;;5069873;28;20047;-64
2022/01/28 03:43:49;;;;;;;13.60;3.97;;;7.10;94.60;;;;;;5071836;28;20094;-64
2022/01/28 03:46:15;;;;;;;13.32;3.75;;;7.10;94.50;;;;;;5070218;28;20048;-64
2022/01/28 03:48:41;;;;;;;14.48;3.90;;;7.10;94.50;;;;;;5071934;28;20356;-64
2022/01/28 03:51:07;;;;;;;12.65;3.00;;;7.10;94.50;;;;;;5070106;28;20024;-64
2022/01/28 03:53:32;;;;;;;10.00;3.08;;;7.10;94.40;;;;;;5071935;28;20078;-63
2022/01/28 03:55:58;;;;;;;18.10;4.57;;;7.10;94.30;;;;;;5052284;28;20507;-64
2022/01/28 03:58:24;;;;;;;15.80;4.53;;;7.10;94.30;;;;;;5051238;28;20112;-64
2022/01/28 04:00:51;;;;;;;14.52;4.40;;;7.20;94.20;;;;;;5050255;28;20052;-64
2022/01/28 04:11:26;;;;;;;12.00;3.20;;;7.20;94.20;;;;;;5056414;28;20104;-65
2022/01/28 04:11:33;;;;;;;13.82;3.45;;;7.20;94.00;;;;;;5062400;28;20391;-65
2022/01/28 04:14:13;;;;;;;9.75;2.90;;;7.20;93.70;;;;;;5051309;28;20361;-65
2022/01/28 04:19:23;;;;;;;11.53;3.23;;;7.20;93.60;;;;;;5060553;28;20438;-63
2022/01/28 04:21:48;;;;;;;11.68;2.75;;;7.20;93.60;;;;;;5056483;28;20302;-63
2022/01/28 04:24:14;;;;;;;10.32;3.25;;;7.20;93.60;;;;;;5070639;28;20028;-64
2022/01/28 04:26:40;;;;;;;14.20;5.18;;;7.20;93.90;;;;;;5066229;28;20013;-64
2022/01/28 04:29:06;;;;;;;8.82;3.35;;;7.30;93.50;;;;;;5061653;28;20052;-64
2022/01/28 04:31:32;;;;;;;12.73;3.15;;;7.30;93.50;;;;;;5070178;28;20048;-64
2022/01/28 04:34:00;;;;;;;14.07;3.33;;;7.30;93.40;;;;;;5062288;28;20068;-64
2022/01/28 04:36:28;;;;;;;12.40;3.50;;;7.30;93.40;;;;;;5054355;28;20037;-64
2022/01/28 04:39:06;;;;;;;14.10;2.85;;;7.40;93.30;;;;;;5062328;28;20027;-64
2022/01/28 04:44:05;;;;;;;18.92;3.72;;;7.30;93.00;;;;;;5061819;28;20104;-64
2022/01/28 04:46:40;;;;;;;12.23;3.15;;;7.30;92.90;;;;;;5051477;28;20029;-64
2022/01/28 04:49:22;;;;;;;12.27;2.65;;;7.30;92.60;;;;;;5050946;28;20057;-64
2022/01/28 04:52:27;;;;;;;8.05;2.63;;;7.40;92.80;;;;;;5064743;28;20029;-64
2022/01/28 04:55:10;;;;;;;12.23;3.05;;;7.40;92.70;;;;;;5050812;28;20041;-64
2022/01/28 05:05:42;;;;;;;11.18;3.50;;;7.30;92.60;;;;;;5069158;28;20045;-64
2022/01/28 05:08:29;;;;;;;10.98;2.63;;;7.30;92.30;;;;;;5069930;28;20040;-64
2022/01/28 05:11:15;;;;;;;8.98;2.83;;;7.40;92.40;;;;;;5072852;28;20032;-64
2022/01/28 05:27:09;;;;;;;12.48;3.03;;;7.30;92.30;;;;;;5073123;28;20369;-64
2022/01/28 05:29:35;;;;;;;14.07;2.65;;;7.30;92.10;;;;;;5074645;28;20475;-64
2022/01/28 05:32:02;;;;;;;17.08;2.80;;;7.30;92.10;;;;;;5067698;28;20064;-64
2022/01/28 05:34:27;;;;;;;9.27;2.70;;;7.40;92.10;;;;;;5054869;28;20055;-64
2022/01/28 05:36:54;;;;;;;15.00;2.92;;;7.40;92.00;;;;;;5061144;28;20024;-64
2022/01/28 05:39:20;;;;;;;10.93;3.47;;;7.40;92.10;;;;;;5068483;28;20063;-64
2022/01/28 05:41:46;;;;;;;11.98;3.22;;;7.40;92.20;;;;;;5060104;28;20060;-64
2022/01/28 05:44:11;;;;;;;13.65;3.42;;;7.40;92.10;;;;;;5056970;28;20029;-64
2022/01/28 05:46:37;;;;;;;12.57;3.22;;;7.40;91.90;;;;;;5059238;28;20056;-64
2022/01/28 05:49:03;;;;;;;10.40;2.83;;;7.40;91.80;;;;;;5055940;28;20444;-64
2022/01/28 05:51:28;;;;;;;10.70;3.75;;;7.30;91.90;;;;;;5070615;28;20032;-64
2022/01/28 05:53:57;;;;;;;11.65;2.88;;;7.30;91.80;;;;;;5073757;28;20099;-64
2022/01/28 05:56:23;;;;;;;15.57;4.65;;;7.30;92.00;;;;;;5073102;28;20047;-64
2022/01/28 05:58:49;;;;;;;10.50;3.15;;;7.40;92.00;;;;;;5072931;28;20025;-64
2022/01/28 06:01:14;;;;;;;16.05;3.63;;;7.40;91.60;;;;;;5071935;28;20588;-64
2022/01/28 06:03:40;;;;;;;17.60;3.78;;;7.30;91.80;;;;;;5073903;28;20112;-64
2022/01/28 06:06:05;;;;;;;10.00;2.50;;;7.40;91.80;;;;;;5054844;28;20028;-64
2022/01/28 06:08:31;;;;;;;14.10;3.30;;;7.30;91.80;;;;;;5061439;28;20028;-64
2022/01/28 06:10:56;;;;;;;11.68;3.10;;;7.40;91.80;;;;;;5065934;28;20735;-64
2022/01/28 06:13:22;;;;;;;17.98;3.72;;;7.30;91.90;;;;;;5073075;28;20039;-64
2022/01/28 06:15:47;;;;;;;14.75;4.88;;;7.30;91.80;;;;;;5071515;28;20640;-63
2022/01/28 06:18:13;;;;;;;14.30;3.03;;;7.30;91.80;;;;;;5053432;28;20021;-64
2022/01/28 06:20:38;;;;;;;11.10;2.78;;;7.40;92.00;;;;;;5035619;28;20364;-64
2022/01/28 06:23:04;;;;;;;9.13;3.03;;;7.30;92.00;;;;;;5067821;28;20024;-64
2022/01/28 06:25:30;;;;;;;11.48;2.85;;;7.40;92.00;;;;;;5053193;28;20025;-63
2022/01/28 06:27:56;;;;;;;17.75;3.58;;;7.40;92.10;;;;;;5057279;28;20097;-64
2022/01/28 06:30:22;;;;;;;16.30;5.28;;;7.40;92.10;;;;;;5053432;28;20036;-63
2022/01/28 06:32:48;;;;;;;10.57;2.58;;;7.50;92.10;;;;;;5070293;28;20035;-63
2022/01/28 06:35:14;;;;;;;15.52;4.10;;;7.50;92.20;;;;;;5073006;28;20567;-64
2022/01/28 06:37:43;;;;;;;13.18;3.78;;;7.50;92.00;;;;;;5068255;28;20117;-64
2022/01/28 06:40:11;;;;;;;15.80;3.50;;;7.30;92.00;;;;;;5069293;28;20065;-64
2022/01/28 06:42:37;;;;;;;11.57;3.00;;;7.30;92.10;;;;;;5066072;28;20028;-64
2022/01/28 06:45:04;;;;;;;14.23;4.07;;;7.30;92.10;;;;;;5072730;28;20020;-64
2022/01/28 06:47:30;;;;;;;10.68;3.58;;;7.30;92.20;;;;;;5059712;28;20029;-64
2022/01/28 06:49:56;;;;;;;11.48;3.53;;;7.30;92.20;;;;;;5053590;28;20153;-63
2022/01/28 06:52:21;;;;;;;14.30;3.95;;;7.30;92.20;;;;;;5054408;28;20103;-63
2022/01/28 06:54:47;;;;;;;11.68;3.13;;;7.20;92.20;;;;;;5072596;28;20043;-64
2022/01/28 06:57:12;;;;;;;12.38;3.75;;;7.20;92.20;;;;;;5062149;28;20054;-64
2022/01/28 06:59:38;;;;;;;16.77;3.95;;;7.20;92.10;;;;;;5053465;28;20036;-64
2022/01/28 07:02:04;;;;;;;12.77;3.20;;;7.20;92.10;;;;;;5053229;28;20567;-64
2022/01/28 07:04:29;;;;;;;18.95;3.55;;;7.20;92.20;;;;;;5053025;28;20029;-64
2022/01/28 07:06:54;;;;;;;11.07;3.17;;;7.20;92.20;;;;;;5058400;28;20430;-64
2022/01/28 07:09:20;;;;;;;12.30;3.20;;;7.20;92.20;;;;;;5071302;28;20039;-64
2022/01/28 07:11:45;;;;;;;13.27;3.03;;;7.20;92.30;;;;;;5048354;28;20020;-64
2022/01/28 07:14:11;;;;;;;13.80;3.65;;;7.20;92.40;;;;;;5034872;28;20040;-64
2022/01/28 07:16:36;;;;;;;16.45;4.15;;;7.20;92.10;;;;;;5053268;28;20119;-64
2022/01/28 07:19:03;;;;;;;29.35;4.88;;;7.20;92.00;;;;;;5052264;28;20033;-65
2022/01/28 07:21:29;;;;;;;14.68;3.22;;;7.20;91.80;;;;;;5053900;28;20164;-64
2022/01/28 07:23:54;;;;;;;15.65;4.47;;;7.20;91.80;;;;;;5071303;28;20021;-65
2022/01/28 07:26:20;;;;;;;12.57;3.78;;;7.10;91.70;;;;;;5070023;28;20039;-64
2022/01/28 07:28:46;;;;;;;13.45;3.13;;;7.10;91.90;;;;;;5062848;28;20033;-65
2022/01/28 07:31:14;;;;;;;12.05;3.75;;;7.10;91.80;;;;;;5059316;28;20109;-63
2022/01/28 07:33:40;;;;;;;12.68;3.53;;;7.10;91.70;;;;;;5067900;28;20090;-63
2022/01/28 07:36:06;;;;;;;17.40;4.22;;;7.10;91.70;;;;;;5051211;28;20519;-64
2022/01/28 07:38:31;;;;;;;15.23;3.92;;;7.10;91.80;;;;;;5065468;28;20024;-64
2022/01/28 07:40:58;;;;;;;13.48;4.05;;;7.10;91.60;;;;;;5050581;28;20044;-64
2022/01/28 07:43:24;;;;;;;19.33;4.20;;;7.00;91.80;;;;;;5065623;28;20036;-64
2022/01/28 07:45:50;;;;;;;16.67;4.60;;;7.10;91.60;;;;;;5056017;28;20090;-64
2022/01/28 07:48:15;;;;;;;17.00;3.55;;;7.00;91.60;;;;;;5070193;28;20494;-63
2022/01/28 07:50:41;;;;;;;21.30;3.42;;;7.00;91.60;;;;;;5048456;28;20035;-64
2022/01/28 07:53:08;;;;;;;14.63;3.60;;;7.00;91.70;;;;;;5058877;28;20085;-64
2022/01/28 07:55:34;;;;;;;15.48;4.22;;;7.00;91.70;;;;;;5047654;28;20033;-64
2022/01/28 07:57:59;;;;;;;14.32;3.60;;;7.00;91.70;;;;;;5042075;28;20676;-64
2022/01/28 08:00:27;;;;;;;11.40;3.58;;;6.90;91.60;;;;;;5060961;28;20121;-64
2022/01/28 08:02:52;;;;;;;12.98;3.40;;;6.90;91.60;;;;;;5058604;28;20050;-64
2022/01/28 08:05:18;;;;;;;10.48;3.10;;;6.90;91.80;;;;;;5070231;28;20040;-64
2022/01/28 08:07:44;;;;;;;10.90;4.00;;;6.90;91.70;;;;;;5056481;28;20029;-64
2022/01/28 08:10:10;;;;;;;13.25;3.78;;;6.80;91.70;;;;;;5069287;28;20441;-64
2022/01/28 08:12:46;;;;;;;12.98;3.63;;;6.80;91.80;;;;;;5068829;28;20032;-64
2022/01/28 08:15:11;;;;;;;22.90;3.90;;;6.70;91.80;;;;;;5069709;28;20372;-64
2022/01/28 08:17:37;;;;;;;13.85;3.20;;;6.70;91.90;;;;;;5059039;28;20790;-65
2022/01/28 08:20:03;;;;;;;16.00;3.35;;;6.70;92.00;;;;;;5073264;28;20020;-66
2022/01/28 08:22:28;;;;;;;16.90;5.10;;;6.70;92.00;;;;;;5067025;28;20039;-63
2022/01/28 08:24:54;;;;;;;16.52;3.42;;;6.70;91.90;;;;;;5054767;28;20074;-63
2022/01/28 08:27:19;;;;;;;14.27;4.47;;;6.70;92.00;;;;;;5037673;28;20085;-64
2022/01/28 08:29:45;;;;;;;14.35;3.97;;;6.60;91.90;;;;;;5057191;28;20472;-64
2022/01/28 08:32:10;;;;;;;14.75;5.00;;;6.70;92.00;;;;;;5058534;28;20063;-64
2022/01/28 08:34:35;;;;;;;19.25;5.32;;;6.60;92.00;;;;;;5058398;28;20415;-64
2022/01/28 08:37:03;;;;;;;15.60;5.60;;;6.70;92.00;;;;;;5058952;28;20035;-65
2022/01/28 08:39:30;;;;;;;14.32;3.35;;;6.60;92.00;;;;;;5062989;28;20036;-64
2022/01/28 08:41:56;;;;;;;16.25;3.60;;;6.60;92.00;;;;;;5057398;28;20129;-64
2022/01/28 08:44:21;;;;;;;15.88;4.07;;;6.60;92.00;;;;;;5060145;28;20140;-64
2022/01/28 08:46:46;;;;;;;12.60;3.60;;;6.60;92.10;;;;;;5062908;28;20040;-64
2022/01/28 08:49:12;;;;;;;14.85;4.22;;;6.70;92.10;;;;;;5053069;28;20025;-64
2022/01/28 08:51:38;;;;;;;14.85;4.07;;;6.70;92.10;;;;;;5052942;28;20040;-64
2022/01/28 08:54:03;;;;;;;13.32;4.00;;;6.70;92.00;;;;;;5041406;28;20384;-64
2022/01/28 08:56:29;;;;;;;20.90;4.53;;;6.70;92.00;;;;;;5056682;28;20483;-64
2022/01/28 08:58:54;;;;;;;10.95;4.22;;;6.70;91.80;;;;;;5061292;28;20468;-65
2022/01/28 09:01:20;;;;;;;18.08;5.30;;;6.60;91.90;;;;;;5060135;28;20045;-64
2022/01/28 09:03:46;;;;;;;12.85;4.05;;;6.60;92.00;;;;;;5059321;28;20025;-64
2022/01/28 09:06:11;;;;;;;16.17;4.35;;;6.70;91.90;;;;;;5055615;28;20425;-64
2022/01/28 09:08:37;;;;;;;15.48;3.47;;;6.70;91.90;;;;;;5056580;28;20040;-64
2022/01/28 09:11:32;;;;;;;17.75;3.95;;;6.70;92.00;;;;;;5051207;28;20036;-64
2022/01/28 09:13:57;;;;;;;18.83;4.45;;;6.70;91.80;;;;;;5041072;28;20028;-63
2022/01/28 09:16:23;;;;;;;19.67;4.22;;;6.70;91.80;;;;;;5057759;28;20044;-63
2022/01/28 09:18:48;;;;;;;18.10;5.20;;;6.70;91.90;;;;;;5054901;28;20025;-63
2022/01/28 09:21:14;;;;;;;13.65;3.88;;;6.70;91.80;;;;;;5054825;28;20099;-63
2022/01/28 09:23:40;;;;;;;18.30;3.92;;;6.70;91.90;;;;;;5037910;28;20035;-63
2022/01/28 09:26:06;;;;;;;18.75;3.97;;;6.70;91.80;;;;;;5058040;28;20021;-63
2022/01/28 09:28:34;;;;;;;17.35;4.53;;;6.70;91.70;;;;;;5054154;28;20459;-63
2022/01/28 09:31:00;;;;;;;15.57;4.65;;;6.80;91.80;;;;;;5056415;28;20108;-64
2022/01/28 09:33:25;;;;;;;15.70;4.03;;;6.80;91.60;;;;;;5061967;28;20025;-63
2022/01/28 09:35:53;;;;;;;14.45;3.88;;;6.80;91.50;;;;;;5057625;28;20495;-62
2022/01/28 09:38:19;;;;;;;14.95;4.32;;;6.90;91.60;;;;;;5058610;28;20028;-63
2022/01/28 09:40:44;;;;;;;13.88;3.88;;;6.90;91.30;;;;;;5056075;28;20021;-64
2022/01/28 09:43:10;;;;;;;18.52;4.65;;;6.80;91.10;;;;;;5059393;28;20021;-64
2022/01/28 09:45:36;;;;;;;16.63;4.75;;;6.80;91.30;;;;;;5059181;28;20029;-63
2022/01/28 09:48:02;;;;;;;11.73;3.60;;;6.90;91.50;;;;;;5057136;28;20028;-63
2022/01/28 09:50:30;;;;;;;12.48;4.20;;;6.90;91.40;;;;;;5064384;28;20025;-64
2022/01/28 09:52:57;;;;;;;15.80;4.38;;;6.90;91.40;;;;;;5059558;28;20020;-63
2022/01/28 09:55:25;;;;;;;15.55;4.38;;;7.00;91.40;;;;;;5060322;28;20041;-63
2022/01/28 09:57:55;;;;;;;15.23;4.13;;;7.00;91.20;;;;;;5065796;28;20024;-64
2022/01/28 10:00:23;;;;;;;13.65;4.07;;;7.00;91.30;;;;;;5060339;28;20056;-63
2022/01/28 10:03:03;;;;;;;13.93;3.70;;;7.10;91.30;;;;;;5058371;28;20063;-64
2022/01/28 10:05:32;;;;;;;17.13;3.60;;;7.10;91.20;;;;;;5061930;28;20091;-63
2022/01/28 10:08:27;;;;;;;23.13;5.32;;;7.20;91.20;;;;;;5063410;28;21781;-64
2022/01/28 10:11:10;;;;;;;14.20;3.70;;;7.30;91.00;;;;;;5057862;28;20436;-63
2022/01/28 10:13:50;;;;;;;21.65;5.13;;;7.40;90.90;;;;;;5059938;28;20545;-63
2022/01/28 10:16:25;;;;;;;16.48;5.07;;;7.40;91.00;;;;;;5059788;28;20060;-64
2022/01/28 10:18:54;;;;;;;15.48;3.97;;;7.50;91.00;;;;;;5059548;28;21820;-64
2022/01/28 10:21:29;;;;;;;14.95;4.07;;;7.60;90.90;;;;;;5064034;28;20025;-64
2022/01/28 10:24:12;;;;;;;17.23;3.45;;;7.60;90.60;;;;;;5061286;28;20483;-64
2022/01/28 10:26:44;;;;;;;13.73;4.10;;;7.60;90.40;;;;;;5058620;28;20040;-64
2022/01/28 10:29:18;;;;;;;15.77;3.80;;;7.70;90.60;;;;;;5057352;28;20481;-65
2022/01/28 10:31:47;;;;;;;13.32;3.47;;;7.80;90.70;;;;;;5049055;28;20063;-64
2022/01/28 10:34:22;;;;;;;12.98;3.85;;;7.80;90.20;;;;;;5064072;28;20157;-64
2022/01/28 10:36:49;;;;;;;24.30;5.38;;;7.90;90.40;;;;;;5062314;28;20028;-64
2022/01/28 10:39:24;;;;;;;14.10;4.78;;;7.90;90.10;;;;;;5060319;28;20556;-64
2022/01/28 10:41:51;;;;;;;15.50;3.47;;;8.00;89.80;;;;;;5062575;28;20060;-64
2022/01/28 10:44:18;;;;;;;15.63;3.83;;;8.00;89.70;;;;;;5059148;28;20037;-64
2022/01/28 10:46:52;;;;;;;16.33;3.97;;;8.00;89.00;;;;;;5058205;28;20057;-65
2022/01/28 10:49:18;;;;;;;11.93;3.38;;;7.90;89.20;;;;;;5059508;28;20583;-65
2022/01/28 10:51:44;;;;;;;17.70;3.58;;;7.90;89.60;;;;;;5058955;28;20111;-65
2022/01/28 10:54:19;;;;;;;14.25;4.07;;;7.90;89.70;;;;;;5061118;28;20025;-65
2022/01/28 10:57:01;;;;;;;16.50;3.55;;;7.90;89.90;;;;;;5056754;28;20075;-64
2022/01/28 10:59:38;;;;;;;11.05;3.13;;;8.00;89.60;;;;;;5038223;28;20066;-64
2022/01/28 11:02:05;;;;;;;16.52;4.22;;;8.00;90.10;;;;;;5061015;28;20036;-64
2022/01/28 11:04:31;;;;;;;16.65;3.63;;;8.10;89.40;;;;;;5041741;28;20032;-65
2022/01/28 11:06:58;;;;;;;14.95;4.10;;;8.10;89.60;;;;;;5058112;28;20036;-64
2022/01/28 11:09:25;;;;;;;10.10;3.17;;;8.00;88.90;;;;;;5055735;28;20116;-65
2022/01/28 11:11:51;;;;;;;11.52;2.97;;;8.00;89.10;;;;;;5043635;28;20037;-64
2022/01/28 11:14:18;;;;;;;19.02;3.45;;;8.00;89.30;;;;;;5056129;28;20133;-64
2022/01/28 11:16:44;;;;;;;13.40;3.75;;;8.00;89.50;;;;;;5061324;28;20028;-64
2022/01/28 11:19:12;;;;;;;28.60;6.97;;;8.00;89.10;;;;;;5059488;28;20028;-64
2022/01/28 11:21:44;;;;;;;12.65;3.38;;;8.00;89.20;;;;;;5058824;28;20229;-65
2022/01/28 11:24:45;;;;;;;19.85;5.10;;;7.90;89.70;;;;;;5060053;28;20017;-65
2022/01/28 11:27:31;;;;;;;14.32;3.78;;;8.00;89.30;;;;;;5058502;28;20024;-64
2022/01/28 11:30:17;;;;;;;16.52;4.18;;;8.00;89.50;;;;;;5062392;28;20036;-64
2022/01/28 11:33:02;;;;;;;7.57;2.60;;;8.00;88.60;;;;;;5058297;28;20096;-64
2022/01/28 11:35:30;;;;;;;11.13;2.95;;;8.10;89.10;;;;;;5060579;28;20043;-64
2022/01/28 11:38:02;;;;;;;10.00;3.55;;;8.00;88.40;;;;;;5060055;28;20376;-64
2022/01/28 11:40:41;;;;;;;8.60;3.10;;;8.00;89.10;;;;;;5061164;28;20070;-64
2022/01/28 11:43:22;;;;;;;10.95;3.22;;;8.10;88.50;;;;;;5060513;28;20059;-64
2022/01/28 11:46:03;;;;;;;14.65;4.40;;;8.10;88.60;;;;;;5053611;28;20082;-64
2022/01/28 11:48:51;;;;;;;14.30;3.33;;;8.20;88.90;;;;;;5060800;28;20016;-64
2022/01/28 11:51:17;;;;;;;15.48;3.40;;;8.20;88.40;;;;;;5056364;28;20051;-64
2022/01/28 11:53:56;;;;;;;16.67;4.03;;;8.30;88.70;;;;;;5058835;28;20051;-64
2022/01/28 11:56:24;;;;;;;16.38;3.40;;;8.30;88.60;;;;;;5059397;28;20032;-64
2022/01/28 11:59:02;;;;;;;10.00;3.17;;;8.30;87.90;;;;;;5054010;28;20070;-65
2022/01/28 12:01:39;;;;;;;12.90;2.80;;;8.30;87.80;;;;;;5060181;28;20048;-65
2022/01/28 12:04:23;;;;;;;10.25;3.40;;;8.40;88.10;;;;;;5063166;28;20026;-64
2022/01/28 12:07:08;;;;;;;10.63;2.77;;;8.50;88.50;;;;;;5055344;28;20039;-65
2022/01/28 12:09:36;;;;;;;13.10;3.45;;;8.50;88.20;;;;;;5057840;28;20297;-65
2022/01/28 12:12:03;;;;;;;13.35;3.42;;;8.50;88.30;;;;;;5059634;28;20201;-65
2022/01/28 12:14:52;;;;;;;13.60;3.72;;;8.60;88.20;;;;;;5052473;28;20033;-64
2022/01/28 12:17:30;;;;;;;12.75;3.33;;;8.60;88.00;;;;;;5058586;28;20107;-64
2022/01/28 12:20:22;;;;;;;15.48;3.20;;;8.60;87.80;;;;;;5064877;28;20032;-64
2022/01/28 12:23:00;;;;;;;8.65;2.45;;;8.60;87.60;;;;;;5059551;28;20025;-64
2022/01/28 12:25:40;;;;;;;13.93;3.25;;;8.60;87.60;;;;;;5063227;28;20029;-64
2022/01/28 12:28:22;;;;;;;11.35;2.88;;;8.70;87.20;;;;;;5060352;28;20023;-65
2022/01/28 12:31:04;;;;;;;13.93;2.60;;;8.70;87.30;;;;;;5061520;28;20027;-65
2022/01/28 12:33:33;;;;;;;13.70;3.53;;;8.70;87.10;;;;;;5063691;28;20029;-65
2022/01/28 12:36:05;;;;;;;10.38;3.38;;;8.80;87.30;;;;;;5050745;28;20049;-64
2022/01/28 12:38:31;;;;;;;13.65;4.40;;;8.80;87.40;;;;;;5051794;28;20032;-64
2022/01/28 12:41:05;;;;;;;11.75;3.40;;;8.80;87.40;;;;;;5050790;28;20035;-64
2022/01/28 12:43:32;;;;;;;10.48;3.30;;;8.90;87.70;;;;;;5056954;28;20118;-65
2022/01/28 12:46:00;;;;;;;15.95;2.90;;;8.90;86.50;;;;;;5068302;28;20032;-64
2022/01/28 12:48:26;;;;;;;10.27;3.10;;;8.90;87.10;;;;;;5066022;28;20025;-64
2022/01/28 12:50:53;;;;;;;11.43;2.88;;;9.00;87.30;;;;;;5051069;28;20033;-65
2022/01/28 12:53:35;;;;;;;10.45;3.67;;;9.00;87.20;;;;;;5050109;28;20060;-64
2022/01/28 12:56:02;;;;;;;9.45;2.50;;;8.90;86.20;;;;;;5053192;28;20033;-65
2022/01/28 12:58:35;;;;;;;9.48;2.92;;;8.90;86.80;;;;;;5066424;28;20639;-65
2022/01/28 13:01:12;;;;;;;9.35;3.42;;;8.90;86.50;;;;;;5057733;28;20053;-65
2022/01/28 13:04:15;;;;;;;12.23;3.20;;;8.80;86.40;;;;;;5055595;28;20036;-64
2022/01/28 13:09:09;;;;;;;9.85;2.40;;;8.80;86.90;;;;;;5070560;28;20581;-65
2022/01/28 13:11:43;;;;;;;12.60;2.70;;;8.80;86.60;;;;;;5065366;28;20039;-63
2022/01/28 13:14:10;;;;;;;7.00;2.03;;;8.70;86.60;;;;;;5044417;28;20051;-64
2022/01/28 13:16:42;;;;;;;9.43;2.65;;;8.70;87.10;;;;;;5070393;28;20044;-63
2022/01/28 13:19:10;;;;;;;8.77;2.78;;;8.80;87.10;;;;;;5052469;28;20623;-63
2022/01/28 13:21:36;;;;;;;8.07;2.28;;;8.70;87.00;;;;;;5070850;28;20123;-64
2022/01/28 13:24:16;;;;;;;9.15;3.10;;;8.70;87.20;;;;;;5072279;28;20132;-64
2022/01/28 13:26:58;;;;;;;8.80;2.55;;;8.70;87.20;;;;;;5074717;28;20048;-64
2022/01/28 13:29:40;;;;;;;7.78;2.28;;;8.80;87.10;;;;;;5061846;28;20028;-64
2022/01/28 13:32:11;;;;;;;11.35;2.67;;;8.80;87.20;;;;;;5054729;28;20029;-64
2022/01/28 13:34:50;;;;;;;9.15;2.60;;;8.80;87.10;;;;;;5054363;28;20036;-64
2022/01/28 13:37:40;;;;;;;8.38;2.58;;;8.80;87.30;;;;;;5063539;28;20033;-65
2022/01/28 13:40:10;;;;;;;10.77;2.72;;;8.80;87.10;;;;;;5059210;28;20044;-64
2022/01/28 13:42:54;;;;;;;8.43;3.00;;;8.80;87.10;;;;;;5062825;28;20047;-66
2022/01/28 13:45:39;;;;;;;8.52;2.60;;;8.80;86.90;;;;;;5062373;28;20170;-63
2022/01/28 13:48:06;;;;;;;12.63;3.10;;;8.80;87.10;;;;;;5064363;28;20028;-64
2022/01/28 13:50:43;;;;;;;7.97;2.80;;;8.80;87.20;;;;;;5059540;28;20043;-65
2022/01/28 13:55:50;;;;;;;11.23;4.47;;;8.90;87.20;;;;;;5056885;28;20132;-64
2022/01/28 13:58:16;;;;;;;9.40;2.63;;;8.80;87.00;;;;;;5071338;28;20035;-65
2022/01/28 14:00:43;;;;;;;8.50;2.63;;;8.80;86.40;;;;;;5067859;28;20044;-65
2022/01/28 14:03:23;;;;;;;12.63;2.97;;;8.80;86.70;;;;;;5065670;28;20039;-65
2022/01/28 14:06:02;;;;;;;9.40;2.70;;;8.90;86.50;;;;;;5046013;28;20043;-64
2022/01/28 14:08:52;;;;;;;12.25;2.53;;;8.80;87.10;;;;;;5061696;28;20055;-64
2022/01/28 14:11:31;;;;;;;9.10;2.63;;;8.90;86.70;;;;;;5061430;28;20044;-65
2022/01/28 14:14:24;;;;;;;9.85;3.30;;;9.00;86.80;;;;;;5074793;28;20111;-63
2022/01/28 14:16:54;;;;;;;12.40;2.80;;;9.00;85.80;;;;;;5069733;28;20032;-65
2022/01/28 14:19:21;;;;;;;9.18;2.40;;;9.00;85.80;;;;;;5079192;28;20028;-64